createdAt,value
2022-12-08T00:01:26.972Z,4.00
2022-12-08T00:03:54.096Z,4.00
2022-12-08T00:06:43.864Z,4.10
2022-12-08T00:09:32.048Z,4.00
2022-12-08T00:12:04.750Z,4.00
2022-12-08T00:14:33.211Z,4.00
2022-12-08T00:17:03.356Z,4.00
2022-12-08T00:19:30.865Z,4.00
2022-12-08T00:21:58.166Z,4.00
2022-12-08T00:24:29.984Z,4.10
2022-12-08T00:26:56.908Z,4.00
2022-12-08T00:29:23.704Z,4.00
2022-12-08T00:31:51.085Z,4.00
2022-12-08T00:34:18.104Z,4.00
2022-12-08T00:36:45.778Z,4.00
2022-12-08T00:39:15.073Z,3.90
2022-12-08T00:42:00.858Z,4.00
2022-12-08T00:44:28.022Z,4.00
2022-12-08T00:46:57.868Z,3.90
2022-12-08T00:49:24.754Z,3.90
2022-12-08T00:51:52.033Z,3.90
2022-12-08T00:54:19.032Z,4.00
2022-12-08T00:56:47.727Z,4.00
2022-12-08T00:59:15.098Z,4.00
2022-12-08T01:01:45.397Z,3.90
2022-12-08T01:04:20.789Z,3.90
2022-12-08T01:06:48.172Z,3.90
2022-12-08T01:09:17.068Z,3.90
2022-12-08T01:11:47.114Z,3.90
2022-12-08T01:14:14.600Z,3.90
2022-12-08T01:16:42.489Z,3.90
2022-12-08T01:19:12.409Z,3.90
2022-12-08T01:21:42.880Z,3.90
2022-12-08T01:24:14.756Z,3.80
2022-12-08T01:26:44.878Z,3.80
2022-12-08T01:29:12.566Z,3.90
2022-12-08T01:31:40.412Z,3.90
2022-12-08T01:34:08.374Z,3.90
2022-12-08T01:36:39.242Z,3.80
2022-12-08T01:39:10.663Z,3.80
2022-12-08T01:41:38.800Z,3.80
2022-12-08T01:44:08.990Z,3.80
2022-12-08T01:46:38.641Z,3.80
2022-12-08T01:49:06.920Z,3.80
2022-12-08T01:51:41.272Z,3.80
2022-12-08T01:54:08.548Z,3.90
2022-12-08T01:56:46.456Z,3.90
2022-12-08T01:59:13.356Z,3.90
2022-12-08T02:01:40.143Z,3.90
2022-12-08T02:04:06.804Z,4.00
2022-12-08T02:06:38.574Z,4.00
2022-12-08T02:09:05.949Z,3.90
2022-12-08T02:11:32.611Z,4.00
2022-12-08T02:14:00.819Z,4.00
2022-12-08T02:17:04.882Z,4.10
2022-12-08T02:20:04.429Z,4.10
2022-12-08T02:22:42.839Z,4.20
2022-12-08T02:25:19.819Z,4.20
2022-12-08T02:28:10.296Z,4.20
2022-12-08T02:31:08.077Z,4.20
2022-12-08T02:33:59.159Z,4.20
2022-12-08T02:36:37.067Z,4.20
2022-12-08T02:39:22.581Z,4.20
2022-12-08T02:42:06.082Z,4.20
2022-12-08T02:44:56.032Z,4.20
2022-12-08T02:47:24.398Z,4.20
2022-12-08T02:49:51.146Z,4.20
2022-12-08T02:52:17.715Z,4.20
2022-12-08T02:54:51.380Z,4.20
2022-12-08T02:57:32.183Z,4.10
2022-12-08T03:00:07.919Z,4.20
2022-12-08T03:02:40.276Z,4.20
2022-12-08T03:05:22.733Z,4.20
2022-12-08T03:08:22.220Z,4.20
2022-12-08T03:11:08.359Z,4.20
2022-12-08T03:13:41.255Z,4.20
2022-12-08T03:16:11.206Z,4.20
2022-12-08T03:18:43.055Z,4.10
2022-12-08T03:21:12.086Z,4.00
2022-12-08T03:23:41.523Z,4.00
2022-12-08T03:26:18.352Z,4.10
2022-12-08T03:28:45.096Z,4.20
2022-12-08T03:31:14.898Z,4.20
2022-12-08T03:33:43.284Z,4.10
2022-12-08T03:36:12.224Z,4.20
2022-12-08T03:38:49.768Z,4.10
2022-12-08T03:41:19.298Z,4.10
2022-12-08T03:43:47.261Z,4.20
2022-12-08T03:46:15.462Z,4.10
2022-12-08T03:48:42.802Z,4.20
2022-12-08T03:51:09.540Z,4.20
2022-12-08T03:53:36.233Z,4.30
2022-12-08T03:56:14.476Z,4.20
2022-12-08T03:58:44.395Z,4.20
2022-12-08T04:01:11.474Z,4.30
2022-12-08T04:03:38.097Z,4.30
2022-12-08T04:06:05.229Z,4.20
2022-12-08T04:08:31.850Z,4.20
2022-12-08T04:10:58.413Z,4.20
2022-12-08T04:13:25.043Z,4.10
2022-12-08T04:15:51.683Z,4.00
2022-12-08T04:18:18.328Z,4.00
2022-12-08T04:20:45.719Z,3.90
2022-12-08T04:23:12.979Z,3.90
2022-12-08T04:25:39.761Z,3.90
2022-12-08T04:28:06.835Z,3.90
2022-12-08T04:30:33.820Z,3.90
2022-12-08T04:33:00.428Z,3.90
2022-12-08T04:35:27.293Z,3.90
2022-12-08T04:37:54.147Z,3.90
2022-12-08T04:40:20.721Z,3.80
2022-12-08T04:42:47.567Z,3.80
2022-12-08T04:45:14.250Z,3.80
2022-12-08T04:47:41.167Z,3.80
2022-12-08T04:50:08.529Z,3.80
2022-12-08T04:52:35.273Z,3.90
2022-12-08T04:55:05.431Z,3.90
2022-12-08T04:57:32.009Z,4.00
2022-12-08T04:59:58.553Z,4.10
2022-12-08T05:02:25.166Z,4.10
2022-12-08T05:04:51.762Z,4.10
2022-12-08T05:07:18.295Z,4.00
2022-12-08T05:09:44.975Z,4.00
2022-12-08T05:12:11.575Z,4.00
2022-12-08T05:14:38.277Z,4.00
2022-12-08T05:17:09.286Z,4.00
2022-12-08T05:19:36.468Z,3.90
2022-12-08T05:22:03.199Z,3.90
2022-12-08T05:24:29.831Z,3.90
2022-12-08T05:26:56.416Z,3.90
2022-12-08T05:29:23.106Z,4.00
2022-12-08T05:31:49.919Z,3.90
2022-12-08T05:34:16.590Z,3.90
2022-12-08T05:36:43.195Z,3.90
2022-12-08T05:39:13.428Z,3.90
2022-12-08T05:41:40.369Z,3.90
2022-12-08T05:44:07.477Z,3.90
2022-12-08T05:46:34.514Z,3.90
2022-12-08T05:49:02.055Z,4.00
2022-12-08T05:51:28.791Z,4.00
2022-12-08T05:53:55.976Z,4.10
2022-12-08T05:56:23.191Z,4.00
2022-12-08T05:58:50.334Z,4.10
2022-12-08T06:01:25.557Z,4.10
2022-12-08T06:03:52.859Z,4.10
2022-12-08T06:06:20.217Z,4.10
2022-12-08T06:08:46.950Z,4.20
2022-12-08T06:11:21.790Z,4.20
2022-12-08T06:13:48.963Z,4.20
2022-12-08T06:16:16.111Z,4.20
2022-12-08T06:18:59.831Z,4.20
2022-12-08T06:21:26.515Z,4.30
2022-12-08T06:23:57.511Z,4.30
2022-12-08T06:26:24.236Z,4.30
2022-12-08T06:28:50.935Z,4.20
2022-12-08T06:31:26.370Z,4.20
2022-12-08T06:33:54.880Z,4.20
2022-12-08T06:36:24.715Z,4.20
2022-12-08T06:38:54.393Z,4.20
2022-12-08T06:41:20.987Z,4.20
2022-12-08T06:43:47.961Z,4.20
2022-12-08T06:46:18.458Z,4.20
2022-12-08T06:48:45.433Z,4.20
2022-12-08T06:51:14.687Z,4.20
2022-12-08T06:53:42.577Z,4.30
2022-12-08T06:56:10.173Z,4.30
2022-12-08T06:58:37.007Z,4.30
2022-12-08T07:01:13.881Z,4.30
2022-12-08T07:03:41.526Z,4.30
2022-12-08T07:06:08.189Z,4.30
2022-12-08T07:08:35.292Z,4.30
2022-12-08T07:11:09.828Z,4.20
2022-12-08T07:13:36.803Z,4.30
2022-12-08T07:16:11.190Z,4.30
2022-12-08T07:18:38.539Z,4.20
2022-12-08T07:21:10.924Z,4.30
2022-12-08T07:23:37.859Z,4.20
2022-12-08T07:26:10.428Z,4.30
2022-12-08T07:28:38.835Z,4.30
2022-12-08T07:31:06.146Z,4.30
2022-12-08T07:33:34.128Z,4.30
2022-12-08T07:36:04.553Z,4.30
2022-12-08T07:38:31.474Z,4.30
2022-12-08T07:40:58.155Z,4.30
2022-12-08T07:43:24.796Z,4.30
2022-12-08T07:45:51.652Z,4.40
2022-12-08T07:48:18.991Z,4.40
2022-12-08T07:50:46.005Z,4.40
2022-12-08T07:53:13.266Z,4.40
2022-12-08T07:55:44.105Z,4.40
2022-12-08T07:58:11.466Z,4.40
2022-12-08T08:00:38.237Z,4.40
2022-12-08T08:03:04.992Z,4.50
2022-12-08T08:05:31.703Z,4.50
2022-12-08T08:07:58.336Z,4.50
2022-12-08T08:10:25.080Z,4.50
2022-12-08T08:12:51.698Z,4.40
2022-12-08T08:15:20.356Z,4.40
2022-12-08T08:17:51.011Z,4.40
2022-12-08T08:20:18.692Z,4.40
2022-12-08T08:22:50.783Z,4.50
2022-12-08T08:25:19.024Z,4.50
2022-12-08T08:27:46.728Z,4.50
2022-12-08T08:30:19.997Z,4.50
2022-12-08T08:32:47.731Z,4.40
2022-12-08T08:35:14.656Z,4.50
2022-12-08T08:37:45.769Z,4.60
2022-12-08T08:40:15.561Z,4.60
2022-12-08T08:42:42.136Z,4.60
2022-12-08T08:45:09.066Z,4.60
2022-12-08T08:47:35.720Z,4.60
2022-12-08T08:50:03.054Z,4.60
2022-12-08T08:52:30.040Z,4.70
2022-12-08T08:54:56.686Z,4.70
2022-12-08T08:57:25.835Z,4.70
2022-12-08T08:59:53.586Z,4.80
2022-12-08T09:02:21.049Z,4.80
2022-12-08T09:04:48.123Z,4.80
2022-12-08T09:07:15.609Z,4.90
2022-12-08T09:09:42.180Z,5.00
2022-12-08T09:12:09.706Z,5.00
2022-12-08T09:14:36.578Z,5.00
2022-12-08T09:17:03.271Z,5.00
2022-12-08T09:19:29.890Z,4.90
2022-12-08T09:21:56.423Z,4.90
2022-12-08T09:24:23.192Z,4.90
2022-12-08T09:26:49.904Z,4.80
2022-12-08T09:29:17.626Z,4.80
2022-12-08T09:31:44.456Z,4.90
2022-12-08T09:34:12.265Z,5.00
2022-12-08T09:36:39.503Z,4.90
2022-12-08T09:39:06.572Z,4.90
2022-12-08T09:41:41.786Z,4.80
2022-12-08T09:44:23.771Z,4.80
2022-12-08T09:46:53.035Z,4.90
2022-12-08T09:49:33.766Z,4.90
2022-12-08T09:52:01.012Z,5.00
2022-12-08T09:54:36.923Z,5.00
2022-12-08T09:57:13.655Z,5.00
2022-12-08T09:59:42.787Z,5.00
2022-12-08T10:02:22.725Z,5.00
2022-12-08T10:04:49.471Z,5.10
2022-12-08T10:07:37.121Z,5.10
2022-12-08T10:10:22.413Z,5.10
2022-12-08T10:13:27.689Z,5.10
2022-12-08T10:16:44.372Z,5.00
2022-12-08T10:19:17.937Z,5.10
2022-12-08T10:21:45.488Z,5.20
2022-12-08T10:24:32.142Z,5.10
2022-12-08T10:26:59.670Z,5.20
2022-12-08T10:29:26.247Z,5.20
2022-12-08T10:31:52.915Z,5.10
2022-12-08T10:34:24.036Z,5.00
2022-12-08T10:36:58.895Z,5.00
2022-12-08T10:39:38.835Z,5.10
2022-12-08T10:42:14.735Z,5.10
2022-12-08T10:45:02.581Z,5.00
2022-12-08T10:47:30.385Z,5.20
2022-12-08T10:50:31.903Z,5.20
2022-12-08T10:53:12.348Z,5.20
2022-12-08T10:55:53.000Z,5.40
2022-12-08T10:58:32.932Z,5.50
2022-12-08T11:01:04.979Z,5.40
2022-12-08T11:03:36.242Z,5.50
2022-12-08T11:06:14.826Z,5.60
2022-12-08T11:09:21.945Z,5.70
2022-12-08T11:11:58.199Z,5.80
2022-12-08T11:14:32.276Z,5.80
2022-12-08T11:17:15.641Z,6.00
2022-12-08T11:22:33.715Z,5.90
2022-12-08T11:25:24.411Z,5.90
2022-12-08T11:27:56.265Z,6.30
2022-12-08T11:30:34.396Z,6.00
2022-12-08T11:33:16.355Z,6.00
2022-12-08T11:35:46.796Z,6.00
2022-12-08T11:38:22.687Z,5.80
2022-12-08T11:41:08.464Z,5.60
2022-12-08T11:44:16.467Z,5.50
2022-12-08T11:46:46.332Z,5.60
2022-12-08T11:49:14.037Z,5.50
2022-12-08T11:51:47.583Z,5.50
2022-12-08T11:54:17.241Z,5.60
2022-12-08T11:56:56.547Z,5.50
2022-12-08T11:59:34.693Z,5.50
2022-12-08T12:02:02.923Z,5.60
2022-12-08T12:04:33.411Z,5.60
2022-12-08T12:07:34.023Z,5.60
2022-12-08T12:10:29.992Z,5.60
2022-12-08T12:13:08.091Z,5.70
2022-12-08T12:15:53.721Z,5.60
2022-12-08T12:18:41.097Z,5.60
2022-12-08T12:21:26.506Z,5.60
2022-12-08T12:24:22.233Z,5.60
2022-12-08T12:27:00.661Z,5.50
2022-12-08T12:29:32.726Z,5.40
2022-12-08T12:32:04.488Z,5.40
2022-12-08T12:34:35.114Z,5.50
2022-12-08T12:37:07.340Z,5.60
2022-12-08T12:39:45.922Z,5.60
2022-12-08T12:42:35.664Z,5.50
2022-12-08T12:45:16.121Z,5.50
2022-12-08T12:48:13.202Z,5.50
2022-12-08T12:50:44.087Z,5.40
2022-12-08T12:53:16.811Z,5.60
2022-12-08T12:55:46.245Z,5.60
2022-12-08T12:58:29.680Z,5.70
2022-12-08T13:01:11.930Z,5.70
2022-12-08T13:03:45.526Z,5.80
2022-12-08T13:06:14.753Z,5.70
2022-12-08T13:08:51.962Z,5.70
2022-12-08T13:11:18.973Z,5.70
2022-12-08T13:14:05.869Z,5.60
2022-12-08T13:16:34.913Z,5.60
2022-12-08T13:19:05.683Z,5.60
2022-12-08T13:21:35.913Z,5.70
2022-12-08T13:24:17.596Z,5.60
2022-12-08T13:27:03.840Z,5.50
2022-12-08T13:29:35.318Z,5.40
2022-12-08T13:33:16.745Z,5.40
2022-12-08T13:35:30.646Z,5.40
2022-12-08T13:38:00.052Z,5.50
2022-12-08T13:40:30.101Z,5.40
2022-12-08T13:43:15.290Z,5.50
2022-12-08T13:50:05.833Z,5.30
2022-12-08T13:55:13.663Z,5.30
2022-12-08T13:57:23.753Z,5.20
2022-12-08T13:59:50.353Z,5.20
2022-12-08T14:02:22.941Z,5.20
2022-12-08T14:07:38.554Z,5.10
2022-12-08T14:10:10.428Z,5.20
2022-12-08T14:12:37.547Z,5.10
2022-12-08T14:15:06.574Z,5.10
2022-12-08T14:17:34.207Z,5.10
2022-12-08T14:20:19.713Z,5.10
2022-12-08T14:22:46.806Z,5.10
2022-12-08T14:25:15.465Z,5.10
2022-12-08T14:27:42.395Z,5.10
2022-12-08T14:30:24.629Z,5.20
2022-12-08T14:32:54.918Z,5.20
2022-12-08T14:35:29.180Z,5.20
2022-12-08T14:37:58.806Z,5.20
2022-12-08T14:40:35.828Z,5.10
2022-12-08T14:43:18.034Z,5.10
2022-12-08T14:45:44.733Z,5.10
2022-12-08T14:48:38.410Z,5.10
2022-12-08T14:51:05.064Z,5.10
2022-12-08T14:53:31.622Z,5.10
2022-12-08T14:55:58.293Z,5.00
2022-12-08T14:58:31.193Z,5.00
2022-12-08T15:00:59.700Z,5.00
2022-12-08T15:03:29.864Z,5.00
2022-12-08T15:05:59.641Z,5.00
2022-12-08T15:08:26.490Z,5.00
2022-12-08T15:11:18.211Z,4.90
2022-12-08T15:13:48.942Z,4.90
2022-12-08T15:16:42.785Z,4.90
2022-12-08T15:19:29.486Z,4.90
2022-12-08T15:21:58.921Z,4.80
2022-12-08T15:24:29.910Z,4.80
2022-12-08T15:26:57.010Z,4.80
2022-12-08T15:29:29.809Z,4.80
2022-12-08T15:31:59.952Z,4.80
2022-12-08T15:34:26.744Z,4.80
2022-12-08T15:36:55.950Z,4.80
2022-12-08T15:39:36.699Z,4.70
2022-12-08T15:42:06.081Z,4.70
2022-12-08T15:44:32.928Z,4.60
2022-12-08T15:47:06.802Z,4.60
2022-12-08T15:49:33.398Z,4.60
2022-12-08T15:52:10.812Z,4.50
2022-12-08T15:54:38.150Z,4.50
2022-12-08T15:57:19.571Z,4.40
2022-12-08T15:59:52.511Z,4.40
2022-12-08T16:02:22.832Z,4.30
2022-12-08T16:07:38.279Z,4.30
2022-12-08T16:10:06.781Z,4.20
2022-12-08T16:15:59.378Z,4.20
2022-12-08T16:18:30.116Z,4.20
2022-12-08T16:23:45.322Z,4.20
2022-12-08T16:26:44.352Z,4.20
2022-12-08T16:29:05.964Z,4.10
2022-12-08T16:31:33.116Z,4.10
2022-12-08T16:33:59.894Z,4.10
2022-12-08T16:36:26.446Z,4.00
2022-12-08T16:38:53.076Z,4.00
2022-12-08T16:41:38.163Z,4.00
2022-12-08T16:44:06.227Z,4.00
2022-12-08T16:46:33.540Z,3.90
2022-12-08T16:49:00.219Z,3.90
2022-12-08T16:51:27.647Z,3.90
2022-12-08T16:53:55.513Z,3.80
2022-12-08T16:56:26.248Z,3.80
2022-12-08T16:58:57.279Z,3.70
2022-12-08T17:01:24.960Z,3.80
2022-12-08T17:04:22.446Z,3.70
2022-12-08T17:06:38.451Z,3.70
2022-12-08T17:09:05.640Z,3.70
2022-12-08T17:11:36.197Z,3.70
2022-12-08T17:14:09.114Z,3.70
2022-12-08T17:16:35.912Z,3.60
2022-12-08T17:19:02.641Z,3.60
2022-12-08T17:21:29.508Z,3.60
2022-12-08T17:23:56.260Z,3.60
2022-12-08T17:26:22.847Z,3.60
2022-12-08T17:29:00.469Z,3.60
2022-12-08T17:31:29.920Z,3.50
2022-12-08T17:34:05.200Z,3.50
2022-12-08T17:36:31.966Z,3.40
2022-12-08T17:39:00.242Z,3.40
2022-12-08T17:41:27.391Z,3.40
2022-12-08T17:43:54.061Z,3.40
2022-12-08T17:46:21.577Z,3.40
2022-12-08T17:48:48.222Z,3.40
2022-12-08T17:51:15.216Z,3.40
2022-12-08T17:53:41.928Z,3.40
2022-12-08T17:56:20.924Z,3.30
2022-12-08T17:58:53.972Z,3.30
2022-12-08T18:01:21.465Z,3.30
2022-12-08T18:03:48.138Z,3.30
2022-12-08T18:06:14.779Z,3.30
2022-12-08T18:08:41.350Z,3.30
2022-12-08T18:11:14.590Z,3.30
2022-12-08T18:13:41.261Z,3.30
2022-12-08T18:16:07.954Z,3.20
2022-12-08T18:18:34.625Z,3.20
2022-12-08T18:21:02.413Z,3.20
2022-12-08T18:23:29.208Z,3.20
2022-12-08T18:25:55.835Z,3.30
2022-12-08T18:28:23.675Z,3.20
2022-12-08T18:30:50.594Z,3.20
2022-12-08T18:33:17.417Z,3.30
2022-12-08T18:35:44.046Z,3.20
2022-12-08T18:38:10.656Z,3.20
2022-12-08T18:40:37.323Z,3.10
2022-12-08T18:43:03.962Z,3.10
2022-12-08T18:45:30.543Z,3.00
2022-12-08T18:47:57.139Z,3.00
2022-12-08T18:50:23.737Z,3.00
2022-12-08T18:52:51.347Z,3.00
2022-12-08T18:55:18.039Z,3.00
2022-12-08T18:57:44.793Z,3.00
2022-12-08T19:00:14.932Z,3.00
2022-12-08T19:02:42.099Z,2.90
2022-12-08T19:05:14.389Z,3.00
2022-12-08T19:07:42.622Z,3.00
2022-12-08T19:10:10.270Z,3.00
2022-12-08T19:12:37.020Z,3.00
2022-12-08T19:15:04.290Z,3.00
2022-12-08T19:17:31.173Z,3.00
2022-12-08T19:19:57.779Z,2.90
2022-12-08T19:22:24.413Z,3.00
2022-12-08T19:24:51.034Z,2.90
2022-12-08T19:27:18.541Z,2.80
2022-12-08T19:29:45.186Z,2.80
2022-12-08T19:32:12.409Z,2.80
2022-12-08T19:34:38.976Z,2.70
2022-12-08T19:37:06.694Z,2.70
2022-12-08T19:39:51.816Z,2.70
2022-12-08T19:42:38.694Z,2.70
2022-12-08T19:45:12.157Z,2.70
2022-12-08T19:47:39.884Z,2.70
2022-12-08T19:50:27.488Z,2.70
2022-12-08T19:52:54.801Z,2.70
2022-12-08T19:55:23.467Z,2.80
2022-12-08T19:57:51.093Z,2.70
2022-12-08T20:00:19.221Z,2.60
2022-12-08T20:02:46.552Z,2.60
2022-12-08T20:05:13.588Z,2.60
2022-12-08T20:07:40.625Z,2.50
2022-12-08T20:10:15.023Z,2.50
2022-12-08T20:12:41.750Z,2.50
2022-12-08T20:15:10.111Z,2.50
2022-12-08T20:17:40.281Z,2.40
2022-12-08T20:20:08.671Z,2.30
2022-12-08T20:22:35.728Z,2.40
2022-12-08T20:25:02.724Z,2.40
2022-12-08T20:27:29.581Z,2.30
2022-12-08T20:29:56.201Z,2.20
2022-12-08T20:32:22.965Z,2.10
2022-12-08T20:34:49.621Z,2.10
2022-12-08T20:37:16.271Z,2.10
2022-12-08T20:39:42.905Z,2.10
2022-12-08T20:42:13.564Z,2.10
2022-12-08T20:44:44.247Z,1.90
2022-12-08T20:47:12.146Z,1.90
2022-12-08T20:49:38.948Z,1.90
2022-12-08T20:52:05.861Z,1.90
2022-12-08T20:54:32.524Z,1.90
2022-12-08T20:56:59.307Z,1.90
2022-12-08T20:59:26.672Z,1.90
2022-12-08T21:01:54.016Z,1.90
2022-12-08T21:04:21.957Z,1.90
2022-12-08T21:06:49.433Z,1.90
2022-12-08T21:09:16.194Z,1.90
2022-12-08T21:11:43.061Z,1.80
2022-12-08T21:14:09.674Z,1.80
2022-12-08T21:16:37.993Z,1.80
2022-12-08T21:19:05.818Z,1.70
2022-12-08T21:21:32.705Z,1.80
2022-12-08T21:23:59.708Z,1.80
2022-12-08T21:26:26.650Z,1.80
2022-12-08T21:28:58.178Z,2.00
2022-12-08T21:31:29.384Z,2.00
2022-12-08T21:33:56.121Z,2.00
2022-12-08T21:36:23.281Z,2.00
2022-12-08T21:38:50.939Z,2.10
2022-12-08T21:41:40.962Z,2.00
2022-12-08T21:44:10.328Z,2.00
2022-12-08T21:46:37.209Z,2.00
2022-12-08T21:49:04.442Z,2.00
2022-12-08T21:51:32.831Z,1.90
2022-12-08T21:53:59.427Z,1.90
2022-12-08T21:56:26.396Z,1.90
2022-12-08T21:58:54.071Z,1.90
2022-12-08T22:01:20.985Z,2.00
2022-12-08T22:03:47.952Z,2.00
2022-12-08T22:06:14.890Z,2.00
2022-12-08T22:08:42.020Z,2.00
2022-12-08T22:11:10.352Z,2.00
2022-12-08T22:13:39.159Z,2.00
2022-12-08T22:16:09.424Z,2.00
2022-12-08T22:18:37.129Z,2.10
2022-12-08T22:21:11.643Z,2.10
2022-12-08T22:23:38.529Z,2.10
2022-12-08T22:26:06.237Z,2.10
2022-12-08T22:28:35.806Z,2.00
2022-12-08T22:31:08.841Z,2.00
2022-12-08T22:33:35.424Z,2.10
2022-12-08T22:36:10.150Z,2.10
2022-12-08T22:38:37.877Z,2.20
2022-12-08T22:41:05.649Z,2.20
2022-12-08T22:43:32.909Z,2.30
2022-12-08T22:45:59.925Z,2.30
2022-12-08T22:48:26.539Z,2.40
2022-12-08T22:51:00.855Z,2.30
2022-12-08T22:53:27.530Z,2.30
2022-12-08T22:55:54.666Z,2.40
2022-12-08T22:58:21.826Z,2.30
2022-12-08T23:00:48.529Z,2.40
2022-12-08T23:03:15.408Z,2.30
2022-12-08T23:05:42.483Z,2.40
2022-12-08T23:08:13.050Z,2.50
2022-12-08T23:10:40.157Z,2.40
2022-12-08T23:13:06.722Z,2.40
2022-12-08T23:15:33.556Z,2.40
2022-12-08T23:18:00.347Z,2.40
2022-12-08T23:20:27.203Z,2.40
2022-12-08T23:22:53.933Z,2.30
2022-12-08T23:25:20.639Z,2.30
2022-12-08T23:27:47.729Z,2.30
2022-12-08T23:30:15.248Z,2.30
2022-12-08T23:32:41.944Z,2.30
2022-12-08T23:35:09.628Z,2.30
2022-12-08T23:37:36.559Z,2.30
2022-12-08T23:40:04.769Z,2.20
2022-12-08T23:42:31.871Z,2.20
2022-12-08T23:44:58.459Z,2.20
2022-12-08T23:47:25.417Z,2.30
2022-12-08T23:49:52.076Z,2.30
2022-12-08T23:52:18.678Z,2.20
2022-12-08T23:54:45.264Z,2.20
2022-12-08T23:57:11.852Z,2.20
2022-12-08T23:59:38.704Z,2.20
